Shiloh, Virginia
Current Conditions -  °F | °C
As of 7:35 PM on Saturday 25 Oct 2014 (Local Time) from KEZF Reporting Station
Clear Clear  
Wind Chill: 64°   Ceiling: Unl
Heat Index: 64°   Visibility: 10mi
Dew Point: 43°   Wind: 9mph
Humidity: 47%   Direction: 200°SSW
Pressure: 29.76"   Gusts: NA
Location:  38.265°N, 77.1228°W
Report Text: KEZF 252335Z AUTO 20008KT 10SM CLR 18/06 A2976 RMK AO2 T01750061
Loading
Personal Weather Stations






























Interactive Weather Map
Tropical Storm Tracking
New forecast layout! Learn more

10-Day Weather Forecast

Advertisements
Track Severe Weather on mobile